https://wetter-ruppersthal.at
Wetterdaten: aktuell Montag, 21.06.2021 19:00
Datum Zeit Temp. A. Feuchte A. Luftdruck Regen Wind Richtung Richtung Sonnenschein T Regen ET UV Solar Taupunkt Windchill Windben Empfang
21.06.2021 19:00 27,6 C 60 % 1005,1 hPa 0,0 l/m 1,6 km/h (1 Bft) NO 45 20 min 0 min 0,152 mm 0,0 UV-I 39 W/m 19,1 C 27,6 C 6,4 km/h (2 Bft) 100,00 %
21.06.2021 18:00 31,6 C 53 % 1004,1 hPa 0,0 l/m 1,6 km/h (1 Bft) S-SO 157 60 min 0 min 0,356 mm 0,8 UV-I 368 W/m 20,8 C 31,6 C 6,4 km/h (2 Bft) 100,00 %
21.06.2021 17:00 31,4 C 54 % 1004,8 hPa 0,0 l/m 4,8 km/h (1 Bft) S-SO 157 50 min 0 min 0,457 mm 1,5 UV-I 499 W/m 20,9 C 31,4 C 11,3 km/h (2 Bft) 100,00 %
21.06.2021 16:00 30,4 C 56 % 1004,3 hPa 0,0 l/m 4,8 km/h (1 Bft) S 180 0 min 0 min 0,279 mm 1,5 UV-I 350 W/m 20,6 C 30,4 C 9,7 km/h (2 Bft) 100,00 %
21.06.2021 15:00 31,1 C 55 % 1004,5 hPa 0,0 l/m 4,8 km/h (1 Bft) SO 135 20 min 0 min 0,356 mm 1,4 UV-I 250 W/m 21,0 C 31,1 C 14,5 km/h (3 Bft) 100,00 %
21.06.2021 14:00 31,5 C 52 % 1005,2 hPa 0,0 l/m 3,2 km/h (1 Bft) SO 135 45 min 0 min 0,610 mm 3,4 UV-I 538 W/m 20,4 C 31,5 C 6,4 km/h (2 Bft) 100,00 %
21.06.2021 13:00 30,4 C 56 % 1005,0 hPa 0,0 l/m 4,8 km/h (1 Bft) W 270 55 min 0 min 0,610 mm 5,5 UV-I 860 W/m 20,6 C 30,4 C 9,7 km/h (2 Bft) 100,00 %
21.06.2021 12:00 29,6 C 59 % 1005,5 hPa 0,0 l/m 4,8 km/h (1 Bft) NW 315 60 min 0 min 0,508 mm 4,8 UV-I 761 W/m 20,7 C 29,6 C 12,9 km/h (3 Bft) 100,00 %
21.06.2021 11:00 27,9 C 64 % 1005,6 hPa 0,0 l/m 1,6 km/h (1 Bft) W-NW 292 60 min 0 min 0,483 mm 4,0 UV-I 640 W/m 20,4 C 27,9 C 6,4 km/h (2 Bft) 100,00 %
21.06.2021 10:00 26,5 C 67 % 1005,7 hPa 0,0 l/m 6,4 km/h (2 Bft) S 180 60 min 0 min 0,406 mm 2,8 UV-I 557 W/m 19,9 C 26,5 C 14,5 km/h (3 Bft) 100,00 %
21.06.2021 09:00 24,8 C 72 % 1005,7 hPa 0,0 l/m 3,2 km/h (1 Bft) S-SO 157 50 min 0 min 0,254 mm 1,8 UV-I 432 W/m 19,4 C 24,8 C 8,0 km/h (2 Bft) 100,00 %
21.06.2021 08:00 23,9 C 74 % 1005,5 hPa 0,0 l/m 3,2 km/h (1 Bft) SO 135 30 min 0 min 0,127 mm 0,7 UV-I 261 W/m 19,0 C 23,9 C 6,4 km/h (2 Bft) 100,00 %
21.06.2021 07:00 22,7 C 77 % 1005,0 hPa 0,0 l/m 0,0 km/h (0 Bft) SO 135 5 min 0 min 0,076 mm 0,0 UV-I 78 W/m 18,5 C 22,7 C 3,2 km/h (1 Bft) 100,00 %
21.06.2021 06:00 22,3 C 78 % 1004,7 hPa 0,0 l/m 1,6 km/h (1 Bft) N-NO 22 5 min 0 min 0,025 mm 0,0 UV-I 47 W/m 18,3 C 22,3 C 4,8 km/h (1 Bft) 100,00 %
21.06.2021 05:00 22,6 C 76 % 1004,4 hPa 0,0 l/m 1,6 km/h (1 Bft) SO 135 0 min 0 min 0,025 mm 0,0 UV-I 7 W/m 18,1 C 22,6 C 8,0 km/h (2 Bft) 100,00 %
21.06.2021 04:00 23,1 C 73 % 1004,4 hPa 0,0 l/m 3,2 km/h (1 Bft) SO 135 0 min 0 min 0,025 mm 0,0 UV-I 0 W/m 18,0 C 23,1 C 11,3 km/h (2 Bft) 100,00 %
21.06.2021 03:00 23,5 C 73 % 1004,8 hPa 0,0 l/m 3,2 km/h (1 Bft) SO 135 0 min 0 min 0,025 mm 0,0 UV-I 0 W/m 18,4 C 23,5 C 11,3 km/h (2 Bft) 100,00 %
21.06.2021 02:00 24,1 C 69 % 1005,3 hPa 0,0 l/m 3,2 km/h (1 Bft) S-SO 157 0 min 0 min 0,025 mm 0,0 UV-I 0 W/m 18,0 C 24,1 C 11,3 km/h (2 Bft) 100,00 %
21.06.2021 01:00 24,1 C 71 % 1006,1 hPa 0,0 l/m 3,2 km/h (1 Bft) SO 135 0 min 0 min 0,025 mm 0,0 UV-I 0 W/m 18,5 C 24,1 C 11,3 km/h (2 Bft) 100,00 %
21.06.2021 00:00 24,5 C 70 % 1006,6 hPa 0,0 l/m 1,6 km/h (1 Bft) O-NO 67 0 min 0 min 0,025 mm 0,0 UV-I 0 W/m 18,7 C 24,5 C 8,0 km/h (2 Bft) 100,00 %
_ Min-Zeit 06:15 14:05 17:55 - 06:25 - - - - - - - 05:15 06:15 07:05 01:05
Minimum _ 22,2 C 50 % 1004,1 hPa - 0,0 km/h (0 Bft) - - - - - - - 18,0 C 22,2 C 1,6 km/h (1 Bft) 89,47 %
_ Max-Zeit 13:40 05:45 00:05 00:00 16:30 - - 05:10 00:00 13:00 13:05 13:10 16:25 13:40 04:35 00:00
Maximum _ 32,1 C 78 % 1006,7 hPa 0,0 l/m 8,0 km/h
S-SO (2 Bft)
- - 5 min 0 min 0,610 mm 5,7 UV-I 935 W/m 21,2 C 32,1 C 19,3 km/h
O (3 Bft)
100,00 %
Durchschnitt _ 26,8 C 65 % 1005,1 hPa #0,0 l/m 3,3 km/h (1 Bft) SO - #8:40 h #0 min. #4,824 mm 2,6 UV-I 404 W/m 19,5 C 26,8 C 9,4 km/h (2 Bft) 99,73 %

Manfred Kirchner